Time;durP1;ratioP1;P1;durP2;ratioP2;P2;SDS_P1;SDS_P2;PMS_P1;PMS_P2;Temp;Humidity;BMP_temperature;BMP_pressure;BME280_temperature;BME280_humidity;BME280_pressure;Samples;Min_cycle;Max_cycle;Signal;HPM_P1;HPM_P2
2023/12/25 00:01:46;;;;;;;1999.90;999.90;;;12.90;99.90;;;;;;5032415;28;20375;-72
2023/12/25 00:04:12;;;;;;;1999.90;999.90;;;12.90;99.90;;;;;;5031924;28;20420;-71
2023/12/25 00:06:37;;;;;;;1999.90;999.90;;;12.90;99.90;;;;;;5033250;28;20101;-71
2023/12/25 00:09:03;;;;;;;1999.90;999.90;;;12.80;99.90;;;;;;5036088;28;20376;-71
2023/12/25 00:11:29;;;;;;;1999.90;999.90;;;12.80;99.90;;;;;;5033305;28;20087;-72
2023/12/25 00:13:55;;;;;;;1999.90;999.90;;;12.80;99.90;;;;;;5036222;28;20108;-74
2023/12/25 00:16:24;;;;;;;1999.90;999.90;;;12.70;99.90;;;;;;5035970;28;20072;-72
2023/12/25 00:18:50;;;;;;;1999.90;999.90;;;12.70;99.90;;;;;;5027535;28;20018;-72
2023/12/25 00:21:16;;;;;;;1999.90;999.90;;;12.70;99.90;;;;;;5035782;28;20044;-71
2023/12/25 00:23:41;;;;;;;1999.90;999.90;;;12.60;99.90;;;;;;5035622;28;20025;-71
2023/12/25 00:26:08;;;;;;;1999.90;999.90;;;12.60;99.90;;;;;;5035591;28;20033;-71
2023/12/25 00:28:33;;;;;;;1999.90;999.90;;;12.60;99.90;;;;;;5034045;28;20037;-71
2023/12/25 00:30:59;;;;;;;1999.90;999.90;;;12.60;99.90;;;;;;5035417;28;20040;-71
2023/12/25 00:33:25;;;;;;;1999.90;999.90;;;12.60;99.90;;;;;;5035212;28;20095;-71
2023/12/25 00:35:50;;;;;;;1999.90;999.90;;;12.60;99.90;;;;;;5035699;28;20021;-71
2023/12/25 00:38:16;;;;;;;1999.90;999.90;;;12.60;99.90;;;;;;5035544;28;20029;-71
2023/12/25 00:40:41;;;;;;;1999.90;999.90;;;12.60;99.90;;;;;;5030992;28;20041;-71
2023/12/25 00:43:07;;;;;;;1999.90;999.90;;;12.60;99.90;;;;;;5033397;28;20041;-71
2023/12/25 00:45:33;;;;;;;1999.90;999.90;;;12.50;99.90;;;;;;5032491;28;20026;-71
2023/12/25 00:47:58;;;;;;;1999.90;999.90;;;12.50;99.90;;;;;;5035694;28;20029;-72
2023/12/25 00:50:24;;;;;;;1999.90;999.90;;;12.50;99.90;;;;;;5033048;28;20041;-72
2023/12/25 00:52:50;;;;;;;1999.90;999.90;;;12.50;99.90;;;;;;5033972;28;20036;-71
2023/12/25 00:55:15;;;;;;;1999.90;999.90;;;12.50;99.90;;;;;;5035203;28;20029;-71
2023/12/25 00:57:41;;;;;;;1999.90;999.90;;;12.50;99.90;;;;;;5034909;28;20021;-72
2023/12/25 01:00:07;;;;;;;1999.90;999.90;;;12.50;99.90;;;;;;5035419;28;20424;-71
2023/12/25 01:02:33;;;;;;;1999.90;999.90;;;12.40;99.90;;;;;;5030718;28;20495;-71
2023/12/25 01:04:59;;;;;;;1999.90;999.90;;;12.40;99.90;;;;;;5024662;28;20041;-71
2023/12/25 01:07:24;;;;;;;1999.90;999.90;;;12.40;99.90;;;;;;5031576;28;20328;-70
2023/12/25 01:09:50;;;;;;;1999.90;999.90;;;12.40;99.90;;;;;;5034837;28;20030;-71
2023/12/25 01:12:16;;;;;;;1999.90;999.90;;;12.50;99.90;;;;;;5027254;28;20049;-71
2023/12/25 01:14:44;;;;;;;1999.90;999.90;;;12.40;99.90;;;;;;5034200;28;20025;-71
2023/12/25 01:17:10;;;;;;;1999.90;999.90;;;12.50;99.90;;;;;;5034939;28;20025;-71
2023/12/25 01:19:36;;;;;;;1999.90;999.90;;;12.50;99.90;;;;;;5034349;28;20024;-71
2023/12/25 01:22:02;;;;;;;1999.90;999.90;;;12.50;99.90;;;;;;5033123;28;20029;-71
2023/12/25 01:24:28;;;;;;;1999.90;999.90;;;12.50;99.90;;;;;;5033720;28;20048;-70
2023/12/25 01:26:54;;;;;;;1999.90;999.90;;;12.50;99.90;;;;;;5033185;28;20282;-71
2023/12/25 01:29:20;;;;;;;1999.90;999.90;;;12.50;99.90;;;;;;5034674;28;20037;-71
2023/12/25 01:31:45;;;;;;;1999.90;999.90;;;12.50;99.90;;;;;;5033611;28;20097;-71
2023/12/25 01:34:11;;;;;;;1999.90;999.90;;;12.50;99.90;;;;;;5035016;28;20025;-71
2023/12/25 01:36:38;;;;;;;1999.90;999.90;;;12.50;99.90;;;;;;5030172;28;20028;-71
2023/12/25 01:39:04;;;;;;;1999.90;999.90;;;12.40;99.90;;;;;;5033760;28;20074;-71
2023/12/25 01:41:30;;;;;;;1999.90;999.90;;;12.40;99.90;;;;;;5035399;28;20037;-71
2023/12/25 01:43:55;;;;;;;1999.90;999.90;;;12.40;99.90;;;;;;5037951;28;20448;-71
2023/12/25 01:46:22;;;;;;;1999.90;999.90;;;12.40;99.90;;;;;;5033357;28;20034;-71
2023/12/25 01:48:51;;;;;;;1999.90;999.90;;;12.40;99.90;;;;;;5035294;28;20049;-71
2023/12/25 01:51:19;;;;;;;1999.90;999.90;;;12.30;99.90;;;;;;5028259;28;20047;-71
2023/12/25 01:53:45;;;;;;;1999.90;999.90;;;12.30;99.90;;;;;;5035321;28;20030;-71
2023/12/25 01:56:11;;;;;;;1999.90;999.90;;;12.30;99.90;;;;;;5033784;28;20342;-71
2023/12/25 01:58:36;;;;;;;1999.90;999.90;;;12.30;99.90;;;;;;5033125;28;20038;-71
2023/12/25 02:01:02;;;;;;;1999.90;999.90;;;12.30;99.90;;;;;;5035884;28;20442;-71
2023/12/25 02:03:28;;;;;;;1999.90;999.90;;;12.30;99.90;;;;;;5026917;28;20386;-72
2023/12/25 02:05:53;;;;;;;1999.90;999.90;;;12.20;99.90;;;;;;5035834;28;20048;-71
2023/12/25 02:08:20;;;;;;;1999.90;999.90;;;12.20;99.90;;;;;;5033719;28;20055;-71
2023/12/25 02:10:46;;;;;;;1999.90;999.90;;;12.20;99.90;;;;;;5031156;28;20101;-71
2023/12/25 02:13:11;;;;;;;1999.90;999.90;;;12.20;99.90;;;;;;5020835;28;20428;-71
2023/12/25 02:15:39;;;;;;;1999.90;999.90;;;12.20;99.90;;;;;;5026814;28;20440;-71
2023/12/25 02:18:05;;;;;;;1999.90;999.90;;;12.30;99.90;;;;;;5033469;28;20022;-71
2023/12/25 02:20:33;;;;;;;1999.90;999.90;;;12.30;99.90;;;;;;5034043;28;20075;-70
2023/12/25 02:23:01;;;;;;;1999.90;999.90;;;12.20;99.90;;;;;;5033834;28;20033;-71
2023/12/25 02:25:32;;;;;;;1999.90;999.90;;;12.20;99.90;;;;;;5033297;28;20033;-71
2023/12/25 02:27:58;;;;;;;1999.90;999.90;;;12.10;99.90;;;;;;5032679;28;20315;-72
2023/12/25 02:30:25;;;;;;;1999.90;999.90;;;12.10;99.90;;;;;;5032087;28;20351;-71
2023/12/25 02:32:51;;;;;;;1999.90;999.90;;;12.00;99.90;;;;;;5033725;28;20033;-71
2023/12/25 02:35:17;;;;;;;1999.90;999.90;;;12.00;99.90;;;;;;5033058;28;20479;-71
2023/12/25 02:37:42;;;;;;;1999.90;999.90;;;11.90;99.90;;;;;;5031151;28;20116;-70
2023/12/25 02:40:09;;;;;;;1999.90;999.90;;;11.90;99.90;;;;;;5020624;28;20417;-72
2023/12/25 02:42:34;;;;;;;1999.90;999.90;;;11.90;99.90;;;;;;5030533;28;20037;-71
2023/12/25 02:45:00;;;;;;;1999.90;999.90;;;11.90;99.90;;;;;;5031061;28;20048;-72
2023/12/25 02:47:26;;;;;;;1999.90;999.90;;;12.00;99.90;;;;;;5031966;28;20369;-71
2023/12/25 02:49:52;;;;;;;1999.90;999.90;;;12.00;99.90;;;;;;5033433;28;20328;-72
2023/12/25 02:52:18;;;;;;;1999.90;999.90;;;12.00;99.90;;;;;;5032892;28;20041;-72
2023/12/25 02:54:44;;;;;;;1999.90;999.90;;;12.00;99.90;;;;;;5032156;28;20033;-71
2023/12/25 02:57:10;;;;;;;1999.90;999.90;;;12.10;99.90;;;;;;5026704;28;20536;-71
2023/12/25 02:59:35;;;;;;;1999.90;999.90;;;12.10;99.90;;;;;;5033514;28;20029;-71
2023/12/25 03:02:02;;;;;;;1999.90;999.90;;;12.10;99.90;;;;;;5026338;28;20048;-71
2023/12/25 03:04:28;;;;;;;;;;;12.00;99.90;;;;;;5025798;28;20029;-71
2023/12/25 03:06:54;;;;;;;1999.90;999.90;;;12.10;99.90;;;;;;5033288;28;19909;-71
2023/12/25 03:09:19;;;;;;;1999.90;999.90;;;12.20;99.90;;;;;;5032495;28;20040;-71
2023/12/25 03:11:45;;;;;;;1999.90;999.90;;;12.10;99.90;;;;;;5032094;28;20025;-72
2023/12/25 03:14:11;;;;;;;1999.90;999.90;;;12.20;99.90;;;;;;5026483;28;20061;-71
2023/12/25 03:16:37;;;;;;;1999.90;999.90;;;12.20;99.90;;;;;;5033171;28;20044;-71
2023/12/25 03:19:02;;;;;;;1999.90;999.90;;;12.10;99.90;;;;;;5032379;28;20021;-71
2023/12/25 03:21:28;;;;;;;1999.90;999.90;;;12.20;99.90;;;;;;5031888;28;20366;-71
2023/12/25 03:23:54;;;;;;;1999.90;999.90;;;12.20;99.90;;;;;;5032887;28;20459;-75
2023/12/25 03:26:19;;;;;;;1999.90;999.90;;;12.20;99.90;;;;;;5032891;28;20343;-71
2023/12/25 03:28:45;;;;;;;1999.90;999.90;;;12.20;99.90;;;;;;5036585;28;20087;-71
2023/12/25 03:31:11;;;;;;;1999.90;999.90;;;12.20;99.90;;;;;;5036042;28;20316;-71
2023/12/25 03:33:38;;;;;;;1999.90;999.90;;;12.20;99.90;;;;;;5035915;28;20480;-72
2023/12/25 03:36:05;;;;;;;1999.90;999.90;;;12.20;99.90;;;;;;5036665;28;20059;-71
2023/12/25 03:38:31;;;;;;;1999.90;999.90;;;12.20;99.90;;;;;;5035885;28;20029;-72
2023/12/25 03:40:57;;;;;;;1999.90;999.90;;;12.20;99.90;;;;;;5036734;28;20021;-73
2023/12/25 03:43:23;;;;;;;1999.90;999.90;;;12.30;99.90;;;;;;5036613;28;20671;-71
2023/12/25 03:45:49;;;;;;;1999.90;999.90;;;12.30;99.90;;;;;;5037147;28;20029;-71
2023/12/25 03:48:16;;;;;;;1999.90;999.90;;;12.30;99.90;;;;;;5035948;28;20095;-71
2023/12/25 03:50:42;;;;;;;1999.90;999.90;;;12.20;99.90;;;;;;5036636;28;20029;-71
2023/12/25 03:53:08;;;;;;;1999.90;999.90;;;12.20;99.90;;;;;;5035982;28;20546;-70
2023/12/25 03:55:36;;;;;;;1999.90;999.90;;;12.30;99.90;;;;;;5034283;28;20034;-71
2023/12/25 03:58:03;;;;;;;1999.90;999.90;;;12.30;99.90;;;;;;5036727;28;20025;-72
2023/12/25 04:00:28;;;;;;;1999.90;999.90;;;12.30;99.90;;;;;;5028602;28;20033;-71
2023/12/25 04:02:56;;;;;;;1999.90;999.90;;;12.30;99.90;;;;;;5032622;28;20416;-71
2023/12/25 04:05:22;;;;;;;1999.90;999.90;;;12.30;99.90;;;;;;5035792;28;20025;-72
2023/12/25 04:07:48;;;;;;;1999.90;999.90;;;12.30;99.90;;;;;;5036806;28;20163;-71
2023/12/25 04:10:14;;;;;;;1999.90;999.90;;;12.30;99.90;;;;;;5035156;28;20115;-71
2023/12/25 04:12:40;;;;;;;1999.90;999.90;;;12.30;99.90;;;;;;5035431;28;20093;-71
2023/12/25 04:15:06;;;;;;;1999.90;999.90;;;12.20;99.90;;;;;;5036290;28;20030;-72
2023/12/25 04:17:32;;;;;;;1999.90;999.90;;;12.20;99.90;;;;;;5035661;28;20144;-71
2023/12/25 04:19:57;;;;;;;1999.90;999.90;;;12.20;99.90;;;;;;5035969;28;20112;-71
2023/12/25 04:22:23;;;;;;;1999.90;999.90;;;12.20;99.90;;;;;;5035707;28;20037;-71
2023/12/25 04:24:49;;;;;;;1999.90;999.90;;;12.20;99.90;;;;;;5036130;28;20420;-72
2023/12/25 04:27:15;;;;;;;1999.90;999.90;;;12.20;99.90;;;;;;5029475;28;20109;-71
2023/12/25 04:29:40;;;;;;;1999.90;999.90;;;12.20;99.90;;;;;;5029790;28;20025;-71
2023/12/25 04:32:06;;;;;;;1999.90;999.90;;;12.10;99.90;;;;;;5037619;28;20029;-71
2023/12/25 04:34:32;;;;;;;1999.90;999.90;;;12.10;99.90;;;;;;5033323;28;20040;-71
2023/12/25 04:36:57;;;;;;;1999.90;999.90;;;12.10;99.90;;;;;;5040792;28;20021;-72
2023/12/25 04:39:23;;;;;;;1999.90;999.90;;;12.10;99.90;;;;;;5040174;28;20052;-71
2023/12/25 04:41:49;;;;;;;1999.90;999.90;;;12.10;99.90;;;;;;5034187;28;20372;-71
2023/12/25 04:44:14;;;;;;;1999.90;999.90;;;12.10;99.90;;;;;;5035970;28;20099;-71
2023/12/25 04:46:42;;;;;;;1999.90;999.90;;;12.10;99.90;;;;;;5038227;28;20049;-70
2023/12/25 04:49:08;;;;;;;1999.90;999.90;;;12.10;99.90;;;;;;5035721;28;20071;-71
2023/12/25 04:51:34;;;;;;;1999.90;999.90;;;12.10;99.90;;;;;;5035078;28;20120;-71
2023/12/25 04:53:59;;;;;;;1999.90;999.90;;;12.00;99.90;;;;;;5035358;28;20021;-71
2023/12/25 04:56:25;;;;;;;1999.90;999.90;;;12.00;99.90;;;;;;5034328;28;20328;-71
2023/12/25 04:58:51;;;;;;;1999.90;999.90;;;12.00;99.90;;;;;;5035082;28;20022;-71
2023/12/25 05:01:17;;;;;;;1999.90;999.90;;;12.00;99.90;;;;;;5035377;28;20083;-71
2023/12/25 05:03:43;;;;;;;1999.90;999.90;;;12.10;99.90;;;;;;5033924;28;20037;-71
2023/12/25 05:06:08;;;;;;;1999.90;999.90;;;12.00;99.90;;;;;;5035385;28;20029;-71
2023/12/25 05:08:34;;;;;;;1999.90;999.90;;;12.00;99.90;;;;;;5033837;28;20052;-71
2023/12/25 05:11:00;;;;;;;1999.90;999.90;;;12.00;99.90;;;;;;5035258;28;20028;-71
2023/12/25 05:13:26;;;;;;;1999.90;999.90;;;12.00;99.90;;;;;;5035024;28;20033;-71
2023/12/25 05:15:51;;;;;;;1999.90;999.90;;;12.10;99.90;;;;;;5034621;28;20026;-71
2023/12/25 05:18:17;;;;;;;1999.90;999.90;;;12.10;99.90;;;;;;5035318;28;20029;-71
2023/12/25 05:20:43;;;;;;;1999.90;999.90;;;12.00;99.90;;;;;;5034578;28;20064;-71
2023/12/25 05:23:11;;;;;;;1999.90;999.90;;;12.00;99.90;;;;;;5034988;28;20033;-73
2023/12/25 05:25:36;;;;;;;1999.90;999.90;;;12.00;99.90;;;;;;5034168;28;20041;-71
2023/12/25 05:28:02;;;;;;;1999.90;999.90;;;12.00;99.90;;;;;;5034037;28;20029;-74
2023/12/25 05:30:28;;;;;;;1999.90;999.90;;;12.00;99.90;;;;;;5034955;28;20420;-70
2023/12/25 05:32:54;;;;;;;1999.90;999.90;;;12.00;99.90;;;;;;5033766;28;20537;-71
2023/12/25 05:35:19;;;;;;;1999.90;999.90;;;12.00;99.90;;;;;;5034880;28;20028;-71
2023/12/25 05:37:45;;;;;;;1999.90;999.90;;;12.00;99.90;;;;;;5026313;28;20127;-71
2023/12/25 05:40:11;;;;;;;1999.90;999.90;;;11.90;99.90;;;;;;5034868;28;20026;-71
2023/12/25 05:42:37;;;;;;;1999.90;999.90;;;11.90;99.90;;;;;;5033281;28;20084;-71
2023/12/25 05:45:03;;;;;;;1999.90;999.90;;;11.90;99.90;;;;;;5034725;28;20031;-71
2023/12/25 05:47:29;;;;;;;1999.90;999.90;;;11.90;99.90;;;;;;5030824;28;20025;-71
2023/12/25 05:49:54;;;;;;;1999.90;999.90;;;11.90;99.90;;;;;;5032328;28;20044;-71
2023/12/25 05:52:20;;;;;;;1999.90;999.90;;;11.90;99.90;;;;;;5034648;28;20477;-71
2023/12/25 05:54:46;;;;;;;1999.90;999.90;;;11.90;99.90;;;;;;5034152;28;20120;-71
2023/12/25 05:57:12;;;;;;;1999.90;999.90;;;11.90;99.90;;;;;;5033818;28;20022;-71
2023/12/25 05:59:37;;;;;;;1999.90;999.90;;;11.80;99.90;;;;;;5034617;28;20080;-71
2023/12/25 06:02:04;;;;;;;1999.90;999.90;;;11.80;99.90;;;;;;5033660;28;20037;-71
2023/12/25 06:04:30;;;;;;;1999.90;999.90;;;11.80;99.90;;;;;;5033909;28;20049;-71
2023/12/25 06:06:55;;;;;;;1999.90;999.90;;;11.80;99.90;;;;;;5033464;28;20069;-71
2023/12/25 06:09:21;;;;;;;1999.90;999.90;;;11.80;99.90;;;;;;5034273;28;20036;-71
2023/12/25 06:11:47;;;;;;;1999.90;999.90;;;11.80;99.90;;;;;;5033478;28;20040;-71
2023/12/25 06:14:13;;;;;;;1999.90;999.90;;;11.70;99.90;;;;;;5032735;28;20034;-71
2023/12/25 06:16:39;;;;;;;1999.90;999.90;;;11.80;99.90;;;;;;5032885;28;20167;-71
2023/12/25 06:19:05;;;;;;;1999.90;999.90;;;11.70;99.90;;;;;;5033377;28;20025;-71
2023/12/25 06:21:30;;;;;;;1999.90;999.90;;;11.70;99.90;;;;;;5034151;28;20031;-71
2023/12/25 06:23:56;;;;;;;1999.90;999.90;;;11.60;99.90;;;;;;5031870;28;20402;-71
2023/12/25 06:26:22;;;;;;;1999.90;999.90;;;11.60;99.90;;;;;;5033738;28;20033;-71
2023/12/25 06:28:48;;;;;;;1999.90;999.90;;;11.60;99.90;;;;;;5033272;28;20037;-70
2023/12/25 06:31:14;;;;;;;1999.90;999.90;;;11.60;99.90;;;;;;5033785;28;20116;-71
2023/12/25 06:33:40;;;;;;;1999.90;999.90;;;11.50;99.90;;;;;;5033528;28;20113;-70
2023/12/25 06:36:06;;;;;;;1999.90;999.90;;;11.50;99.90;;;;;;5032322;28;20036;-71
2023/12/25 06:38:32;;;;;;;1999.90;999.90;;;11.50;99.90;;;;;;5033922;28;20306;-70
2023/12/25 06:40:57;;;;;;;1999.90;999.90;;;11.50;99.90;;;;;;5032592;28;20057;-71
2023/12/25 06:43:23;;;;;;;1999.90;999.90;;;11.50;99.90;;;;;;5033567;28;20037;-71
2023/12/25 06:45:49;;;;;;;1999.90;999.90;;;11.40;99.90;;;;;;5031767;28;20061;-70
2023/12/25 06:48:14;;;;;;;1999.90;999.90;;;11.40;99.90;;;;;;5033488;28;20061;-70
2023/12/25 06:50:40;;;;;;;1999.90;999.90;;;11.40;99.90;;;;;;5033490;28;20072;-70
2023/12/25 06:53:07;;;;;;;1999.90;999.90;;;11.40;99.90;;;;;;5032598;28;20060;-71
2023/12/25 06:55:33;;;;;;;1999.90;999.90;;;11.40;99.90;;;;;;5032320;28;20364;-71
2023/12/25 06:57:59;;;;;;;1999.90;999.90;;;11.40;99.90;;;;;;5030053;28;20026;-71
2023/12/25 07:00:25;;;;;;;1999.90;999.90;;;11.40;99.90;;;;;;5019903;28;20060;-71
2023/12/25 07:02:51;;;;;;;1999.90;999.90;;;11.30;99.90;;;;;;5032523;28;20075;-71
2023/12/25 07:05:17;;;;;;;1999.90;999.90;;;11.30;99.90;;;;;;5032755;28;20033;-71
2023/12/25 07:07:43;;;;;;;1999.90;999.90;;;11.30;99.90;;;;;;5033324;28;20069;-71
2023/12/25 07:10:08;;;;;;;1999.90;999.90;;;11.20;99.90;;;;;;5032373;28;20033;-71
2023/12/25 07:12:34;;;;;;;1999.90;999.90;;;11.10;99.90;;;;;;5033382;28;20082;-71
2023/12/25 07:15:00;;;;;;;1999.90;999.90;;;11.10;99.90;;;;;;5032654;28;20156;-71
2023/12/25 07:17:26;;;;;;;1999.90;999.90;;;11.10;99.90;;;;;;5031811;28;20022;-71
2023/12/25 07:19:52;;;;;;;1999.90;999.90;;;11.00;99.90;;;;;;5032204;28;20021;-71
2023/12/25 07:22:18;;;;;;;1999.90;999.90;;;11.00;99.90;;;;;;5036076;28;20289;-71
2023/12/25 07:24:44;;;;;;;1999.90;999.90;;;11.00;99.90;;;;;;5024685;28;20362;-71
2023/12/25 07:27:10;;;;;;;1999.90;999.90;;;11.00;99.90;;;;;;5032686;28;20060;-71
2023/12/25 07:29:36;;;;;;;1999.90;999.90;;;11.00;99.90;;;;;;5031878;28;20138;-71
2023/12/25 07:32:02;;;;;;;1999.90;999.90;;;11.00;99.90;;;;;;5031005;28;20030;-71
2023/12/25 07:34:28;;;;;;;1999.90;999.90;;;11.00;99.90;;;;;;5030374;28;20043;-71
2023/12/25 07:36:54;;;;;;;1999.90;999.90;;;10.90;99.90;;;;;;5030908;28;20152;-71
2023/12/25 07:39:20;;;;;;;1999.90;999.90;;;10.90;99.90;;;;;;5028620;28;20065;-71
2023/12/25 07:41:46;;;;;;;1999.90;999.90;;;10.90;99.90;;;;;;5028572;28;20181;-71
2023/12/25 07:44:16;;;;;;;1999.90;999.90;;;10.90;99.90;;;;;;5031778;28;20048;-71
2023/12/25 07:46:41;;;;;;;1999.90;999.90;;;10.90;99.90;;;;;;5024750;28;20301;-71
2023/12/25 07:49:07;;;;;;;1999.90;999.90;;;10.90;99.90;;;;;;5023060;28;20018;-71
2023/12/25 07:51:33;;;;;;;1999.90;999.90;;;10.80;99.90;;;;;;5034095;28;20026;-71
2023/12/25 07:53:59;;;;;;;1999.90;999.90;;;10.90;99.90;;;;;;5026515;28;20026;-71
2023/12/25 07:56:25;;;;;;;1999.90;999.90;;;10.80;99.90;;;;;;5033850;28;20034;-71
2023/12/25 07:58:51;;;;;;;1999.90;999.90;;;10.90;99.90;;;;;;5031232;28;20432;-71
2023/12/25 08:01:22;;;;;;;1999.90;999.90;;;10.90;99.90;;;;;;5027522;28;20038;-71
2023/12/25 08:03:51;;;;;;;1999.90;999.90;;;10.90;99.90;;;;;;5030853;28;20033;-71
2023/12/25 08:06:17;;;;;;;1999.90;999.90;;;11.00;99.90;;;;;;5027222;28;20633;-71
2023/12/25 08:08:43;;;;;;;1999.90;999.90;;;11.00;99.90;;;;;;5026846;28;20298;-71
2023/12/25 08:11:13;;;;;;;1999.90;999.90;;;11.00;99.90;;;;;;5025039;28;20036;-71
2023/12/25 08:13:38;;;;;;;1999.90;999.90;;;11.00;99.90;;;;;;5031096;28;20117;-71
2023/12/25 08:16:04;;;;;;;1999.90;999.90;;;11.00;99.90;;;;;;5034535;28;20100;-71
2023/12/25 08:18:30;;;;;;;1999.90;999.90;;;11.10;99.90;;;;;;5027221;28;20377;-71
2023/12/25 08:20:56;;;;;;;1999.90;999.90;;;11.00;99.90;;;;;;5034665;28;20132;-71
2023/12/25 08:23:21;;;;;;;1999.90;999.90;;;11.10;99.90;;;;;;5031360;28;20029;-71
2023/12/25 08:25:47;;;;;;;1999.90;999.90;;;11.00;99.90;;;;;;5028712;28;20034;-71
2023/12/25 08:28:13;;;;;;;1999.90;999.90;;;11.00;99.90;;;;;;5032806;28;20033;-71
2023/12/25 08:30:39;;;;;;;1999.90;999.90;;;11.10;99.90;;;;;;5036539;28;20443;-71
2023/12/25 08:33:04;;;;;;;1999.90;999.90;;;11.10;99.90;;;;;;5029817;28;20032;-72
2023/12/25 08:35:30;;;;;;;1999.90;999.90;;;11.10;99.90;;;;;;5030652;28;20036;-71
2023/12/25 08:37:56;;;;;;;1999.90;999.90;;;11.10;99.90;;;;;;5031234;28;20022;-71
2023/12/25 08:40:21;;;;;;;1999.90;999.90;;;11.10;99.90;;;;;;5023084;28;20698;-71
2023/12/25 08:42:47;;;;;;;1999.90;999.90;;;11.10;99.90;;;;;;5028749;28;20041;-71
2023/12/25 08:45:13;;;;;;;1999.90;999.90;;;11.20;99.90;;;;;;5035203;28;23761;-71
2023/12/25 08:47:40;;;;;;;1999.90;999.90;;;11.20;99.90;;;;;;5032040;28;20337;-71
2023/12/25 08:50:07;;;;;;;;;;;11.30;99.90;;;;;;5037300;28;20117;-71
2023/12/25 08:52:33;;;;;;;1999.90;999.90;;;11.30;99.90;;;;;;5043705;28;19978;-71
2023/12/25 08:54:58;;;;;;;1999.90;999.90;;;11.30;99.90;;;;;;5037709;28;20041;-71
2023/12/25 08:57:24;;;;;;;1999.90;999.90;;;11.30;99.90;;;;;;5039174;28;20104;-71
2023/12/25 08:59:50;;;;;;;1999.90;999.90;;;11.30;99.90;;;;;;5033977;28;20032;-71
2023/12/25 09:02:22;;;;;;;1999.90;999.90;;;11.40;99.90;;;;;;5039480;28;20025;-71
2023/12/25 09:04:49;;;;;;;1999.90;999.90;;;11.50;99.90;;;;;;5038402;28;20112;-71
2023/12/25 09:07:16;;;;;;;;;;;11.50;99.90;;;;;;5043906;28;20086;-71
2023/12/25 09:09:41;;;;;;;1999.90;999.90;;;11.60;99.90;;;;;;5035373;28;19912;-71
2023/12/25 09:12:07;;;;;;;1999.90;999.90;;;11.60;99.90;;;;;;5040228;28;20037;-72
2023/12/25 09:14:33;;;;;;;1999.90;999.90;;;11.60;99.90;;;;;;5042965;28;20374;-71
2023/12/25 09:16:59;;;;;;;1999.90;999.90;;;11.60;99.90;;;;;;5040107;28;20040;-71
2023/12/25 09:19:24;;;;;;;1999.90;999.90;;;11.60;99.90;;;;;;5049831;28;20108;-71
2023/12/25 09:21:50;;;;;;;1999.90;999.90;;;11.70;99.90;;;;;;5036396;28;20026;-71
2023/12/25 09:24:16;;;;;;;1999.90;999.90;;;11.70;99.90;;;;;;5039592;28;20028;-71
2023/12/25 09:26:43;;;;;;;1999.90;999.90;;;11.70;99.90;;;;;;5031820;28;20476;-71
2023/12/25 09:29:10;;;;;;;1999.90;999.90;;;11.70;99.90;;;;;;5047013;28;20048;-71
2023/12/25 09:31:36;;;;;;;1999.90;999.90;;;11.70;99.90;;;;;;5037266;28;20018;-71
2023/12/25 09:34:02;;;;;;;1999.90;999.90;;;11.70;99.90;;;;;;5035721;28;20037;-71
2023/12/25 09:36:29;;;;;;;1999.90;999.90;;;11.80;99.90;;;;;;5037730;28;20428;-71
2023/12/25 09:38:55;;;;;;;1999.90;999.90;;;11.80;99.90;;;;;;5030468;28;20042;-71
2023/12/25 09:41:22;;;;;;;1999.90;999.90;;;11.90;99.90;;;;;;5034406;28;20088;-71
2023/12/25 09:43:52;;;;;;;1999.90;999.90;;;11.90;99.90;;;;;;5025426;28;20088;-71
2023/12/25 09:46:19;;;;;;;1999.90;999.90;;;11.90;99.90;;;;;;5036233;28;20028;-71
2023/12/25 09:48:45;;;;;;;;;;;11.90;99.90;;;;;;5026576;28;20116;-71
2023/12/25 09:51:13;;;;;;;1999.90;999.90;;;11.90;99.90;;;;;;5033145;28;19984;-71
2023/12/25 09:53:39;;;;;;;1999.90;999.90;;;11.90;99.90;;;;;;5035622;28;20052;-71
2023/12/25 09:56:09;;;;;;;1999.90;999.90;;;11.90;99.90;;;;;;5032822;28;20406;-71
2023/12/25 09:58:35;;;;;;;1999.90;999.90;;;11.90;99.90;;;;;;5026127;28;20029;-71
2023/12/25 10:01:01;;;;;;;1999.90;999.90;;;11.90;99.90;;;;;;5035813;28;20032;-71
2023/12/25 10:03:29;;;;;;;1999.90;999.90;;;12.00;99.90;;;;;;5024313;28;20377;-71
2023/12/25 10:05:55;;;;;;;1999.90;999.90;;;12.00;99.90;;;;;;5026901;28;20041;-71
2023/12/25 10:08:21;;;;;;;1999.90;999.90;;;12.00;99.90;;;;;;5032912;28;20042;-71
2023/12/25 10:10:46;;;;;;;1999.90;999.90;;;12.00;99.90;;;;;;5034936;28;20087;-71
2023/12/25 10:13:12;;;;;;;1999.90;999.90;;;12.00;99.90;;;;;;5028406;28;20030;-71
2023/12/25 10:15:38;;;;;;;1999.90;999.90;;;12.00;99.90;;;;;;5033164;28;20032;-71
2023/12/25 10:18:05;;;;;;;1999.90;999.90;;;12.00;99.90;;;;;;5029976;28;20360;-71
2023/12/25 10:20:31;;;;;;;1999.90;999.90;;;12.00;99.90;;;;;;5025248;28;20022;-71
2023/12/25 10:22:57;;;;;;;1999.90;999.90;;;12.10;99.90;;;;;;5019475;28;20095;-71
2023/12/25 10:25:30;;;;;;;1999.90;999.90;;;12.10;99.90;;;;;;5034107;28;20125;-71
2023/12/25 10:28:09;;;;;;;1999.90;999.90;;;12.10;99.90;;;;;;5028523;28;20035;-71
2023/12/25 10:30:35;;;;;;;1999.90;999.90;;;12.10;99.90;;;;;;5030868;28;20026;-71
2023/12/25 10:33:13;;;;;;;1999.90;999.90;;;12.20;99.90;;;;;;5033782;28;20030;-72
2023/12/25 10:35:39;;;;;;;1999.90;999.90;;;12.20;99.90;;;;;;5039597;28;20076;-71
2023/12/25 10:38:06;;;;;;;1999.90;999.90;;;12.20;99.90;;;;;;5016531;28;20175;-71
2023/12/25 10:40:33;;;;;;;1999.90;999.90;;;12.20;99.90;;;;;;5031395;28;20089;-71
2023/12/25 10:42:59;;;;;;;1999.90;999.90;;;12.30;99.90;;;;;;5022160;28;20045;-71
2023/12/25 10:45:27;;;;;;;1999.90;999.90;;;12.40;99.90;;;;;;5030062;28;20317;-71
2023/12/25 10:47:57;;;;;;;1999.90;999.90;;;12.40;99.90;;;;;;5018686;28;20029;-71
2023/12/25 10:50:25;;;;;;;1999.90;999.90;;;12.50;99.90;;;;;;5033918;28;20409;-70
2023/12/25 10:52:52;;;;;;;1999.90;999.90;;;12.50;99.90;;;;;;5032975;28;20320;-71
2023/12/25 10:55:29;;;;;;;1999.90;999.90;;;12.60;99.90;;;;;;5034904;28;21646;-71
2023/12/25 10:57:56;;;;;;;1999.90;999.90;;;12.50;99.90;;;;;;5033621;28;20021;-73
2023/12/25 11:00:22;;;;;;;1999.90;999.90;;;12.50;99.90;;;;;;5029193;28;20516;-71
2023/12/25 11:02:52;;;;;;;1999.90;999.90;;;12.60;99.90;;;;;;5030488;28;20048;-71
2023/12/25 11:05:20;;;;;;;1999.90;999.90;;;12.60;99.90;;;;;;5032984;28;20039;-71
2023/12/25 11:07:46;;;;;;;1999.90;999.90;;;12.50;99.90;;;;;;5015906;28;20445;-70
2023/12/25 11:10:13;;;;;;;1999.90;999.90;;;12.60;99.90;;;;;;5041996;28;20060;-70
2023/12/25 11:12:39;;;;;;;;;;;12.50;99.90;;;;;;5029416;28;20041;-70
2023/12/25 11:15:08;;;;;;;1999.90;999.90;;;12.60;99.90;;;;;;5031050;28;19955;-71
2023/12/25 11:17:34;;;;;;;1999.90;999.90;;;12.60;99.90;;;;;;5025360;28;20251;-71
2023/12/25 11:20:03;;;;;;;1999.90;999.90;;;12.50;99.90;;;;;;5027641;28;20044;-70
2023/12/25 11:22:33;;;;;;;1999.90;999.90;;;12.50;99.90;;;;;;5032859;28;20089;-70
2023/12/25 11:25:01;;;;;;;1999.90;999.90;;;12.50;99.90;;;;;;5024856;28;20025;-70
2023/12/25 11:27:27;;;;;;;1999.90;999.90;;;12.60;99.90;;;;;;5025645;28;20029;-71
2023/12/25 11:30:04;;;;;;;1999.90;999.90;;;12.60;99.90;;;;;;5028154;28;20029;-71
2023/12/25 11:32:30;;;;;;;1999.90;999.90;;;12.60;99.90;;;;;;5022524;28;20040;-71
2023/12/25 11:34:57;;;;;;;1999.90;999.90;;;12.70;99.90;;;;;;5026237;28;20030;-71
2023/12/25 11:37:25;;;;;;;;;;;12.70;99.90;;;;;;5024166;28;20393;-71
2023/12/25 11:40:08;;;;;;;1999.90;999.90;;;12.80;99.90;;;;;;5036355;28;19905;-75
2023/12/25 11:42:35;;;;;;;1999.90;999.90;;;12.80;99.90;;;;;;5041433;28;20069;-71
2023/12/25 11:45:06;;;;;;;1999.90;999.90;;;12.90;99.90;;;;;;5029804;28;20476;-71
2023/12/25 11:47:39;;;;;;;1999.90;999.90;;;12.70;99.90;;;;;;5032320;28;20041;-71
2023/12/25 11:50:09;;;;;;;1999.90;999.90;;;12.70;99.90;;;;;;5032735;28;20080;-71
2023/12/25 11:52:53;;;;;;;1999.90;999.90;;;12.70;99.90;;;;;;5022578;28;20037;-71
2023/12/25 11:55:21;;;;;;;1999.90;999.90;;;12.60;99.90;;;;;;5036175;28;20033;-72
2023/12/25 11:57:47;;;;;;;1999.90;999.90;;;12.60;99.90;;;;;;5035565;28;20037;-71